Time;durP1;ratioP1;P1;durP2;ratioP2;P2;SDS_P1;SDS_P2;PMS_P1;PMS_P2;Temp;Humidity;BMP_temperature;BMP_pressure;BME280_temperature;BME280_humidity;BME280_pressure;Samples;Min_cycle;Max_cycle;Signal;HPM_P1;HPM_P2
2021/11/25 00:01:53;0.00;0.00;0.62;0.00;0.00;0.62;1.60;1.03;;;23.00;29.80;;;;;;2245640;61;20388;-61
2021/11/25 00:04:38;0.00;0.00;0.62;0.00;0.00;0.62;1.87;1.00;;;23.00;29.80;;;;;;2245253;61;20438;-62
2021/11/25 00:07:23;0.00;0.00;0.62;0.00;0.00;0.62;1.30;0.83;;;23.00;29.70;;;;;;2245966;61;20357;-62
2021/11/25 00:10:09;0.00;0.00;0.62;0.00;0.00;0.62;1.90;0.97;;;23.00;29.70;;;;;;2245494;61;20389;-62
2021/11/25 00:12:55;0.00;0.00;0.62;0.00;0.00;0.62;1.83;1.10;;;23.00;29.70;;;;;;2245675;61;20361;-62
2021/11/25 00:15:42;0.00;0.00;0.62;0.00;0.00;0.62;2.43;1.10;;;23.00;29.70;;;;;;2245707;61;20596;-63
2021/11/25 00:18:26;0.00;0.00;0.62;0.00;0.00;0.62;1.80;1.30;;;23.00;29.70;;;;;;2245288;61;20362;-63
2021/11/25 00:21:11;0.00;0.00;0.62;0.00;0.00;0.62;3.43;0.97;;;23.00;29.70;;;;;;2245692;61;20466;-63
2021/11/25 00:23:55;0.00;0.00;0.62;0.00;0.00;0.62;1.50;0.97;;;23.00;29.70;;;;;;2245757;61;20404;-64
2021/11/25 00:26:40;0.00;0.00;0.62;0.00;0.00;0.62;1.87;1.13;;;23.00;29.70;;;;;;2245464;61;20369;-64
2021/11/25 00:29:25;0.00;0.00;0.62;0.00;0.00;0.62;2.17;1.00;;;23.00;29.80;;;;;;2245894;61;20373;-64
2021/11/25 00:32:11;0.00;0.00;0.62;0.00;0.00;0.62;1.63;0.87;;;23.00;29.80;;;;;;2245877;61;20447;-64
2021/11/25 00:34:55;0.00;0.00;0.62;0.00;0.00;0.62;1.47;0.90;;;23.00;29.80;;;;;;2245406;61;20369;-62
2021/11/25 00:37:41;0.00;0.00;0.62;0.00;0.00;0.62;1.40;0.80;;;23.00;29.80;;;;;;2245677;61;20364;-63
2021/11/25 00:40:26;0.00;0.00;0.62;0.00;0.00;0.62;1.53;0.90;;;23.00;29.80;;;;;;2245150;61;20679;-63
2021/11/25 00:43:11;0.00;0.00;0.62;0.00;0.00;0.62;1.40;0.80;;;23.00;29.80;;;;;;2245574;61;20494;-61
2021/11/25 00:45:56;0.00;0.00;0.62;0.00;0.00;0.62;1.30;0.80;;;23.00;29.80;;;;;;2245700;61;20659;-63
2021/11/25 00:48:42;0.00;0.00;0.62;0.00;0.00;0.62;1.70;1.00;;;23.00;29.80;;;;;;2245220;61;20408;-63
2021/11/25 00:51:27;0.00;0.00;0.62;0.00;0.00;0.62;1.40;0.80;;;23.00;29.80;;;;;;2245823;61;20401;-62
2021/11/25 00:54:12;0.00;0.00;0.62;0.00;0.00;0.62;1.47;0.77;;;23.00;29.80;;;;;;2245630;61;20390;-62
2021/11/25 00:56:57;0.00;0.00;0.62;0.00;0.00;0.62;1.83;0.90;;;23.00;29.80;;;;;;2245167;61;20591;-62
2021/11/25 00:59:41;0.00;0.00;0.62;0.00;0.00;0.62;1.90;1.00;;;23.00;29.80;;;;;;2245667;61;20600;-64
2021/11/25 01:02:26;0.00;0.00;0.62;0.00;0.00;0.62;1.60;1.17;;;23.00;29.80;;;;;;2245125;61;20823;-64
2021/11/25 01:05:14;0.00;0.00;0.62;0.00;0.00;0.62;1.23;0.73;;;23.00;29.80;;;;;;2245140;61;20595;-63
2021/11/25 01:08:00;0.00;0.00;0.62;0.00;0.00;0.62;1.53;1.00;;;23.00;29.80;;;;;;2245393;61;20474;-64
2021/11/25 01:10:46;0.00;0.00;0.62;0.00;0.00;0.62;1.40;0.87;;;23.00;29.80;;;;;;2245004;61;20648;-64
2021/11/25 01:13:31;0.00;0.00;0.62;0.00;0.00;0.62;1.50;0.80;;;23.00;29.90;;;;;;2245561;61;20394;-62
2021/11/25 01:16:17;0.00;0.00;0.62;0.00;0.00;0.62;1.50;0.80;;;23.00;29.80;;;;;;2245676;61;20571;-64
2021/11/25 01:19:02;0.00;0.00;0.62;0.00;0.00;0.62;1.70;0.90;;;23.00;29.90;;;;;;2244755;61;20392;-62
2021/11/25 01:21:48;0.00;0.00;0.62;0.00;0.00;0.62;1.40;0.90;;;23.00;29.90;;;;;;2245654;61;20409;-63
2021/11/25 01:24:33;0.00;0.00;0.62;0.00;0.00;0.62;1.50;0.90;;;23.00;29.90;;;;;;2245153;61;20386;-61
2021/11/25 01:27:18;0.00;0.00;0.62;0.00;0.00;0.62;1.37;0.90;;;23.00;29.90;;;;;;2245458;61;20454;-62
2021/11/25 01:30:04;0.00;0.00;0.62;0.00;0.00;0.62;2.00;1.10;;;23.00;29.80;;;;;;2245425;61;20381;-60
2021/11/25 01:32:49;0.00;0.00;0.62;0.00;0.00;0.62;1.50;0.80;;;23.00;29.90;;;;;;2245142;61;20349;-63
2021/11/25 01:35:35;0.00;0.00;0.62;0.00;0.00;0.62;1.47;0.83;;;23.00;29.90;;;;;;2245411;61;20409;-60
2021/11/25 01:38:22;0.00;0.00;0.62;0.00;0.00;0.62;1.60;1.00;;;23.00;29.90;;;;;;2245539;61;20431;-62
2021/11/25 01:41:07;0.00;0.00;0.62;0.00;0.00;0.62;1.50;1.00;;;23.00;29.90;;;;;;2244600;61;20761;-60
2021/11/25 01:43:52;0.00;0.00;0.62;0.00;0.00;0.62;1.23;0.80;;;23.00;29.90;;;;;;2245422;61;20386;-63
2021/11/25 01:46:37;0.00;0.00;0.62;0.00;0.00;0.62;1.50;0.90;;;23.00;29.90;;;;;;2245253;61;20394;-64
2021/11/25 01:49:22;0.00;0.00;0.62;0.00;0.00;0.62;1.67;0.90;;;23.00;29.80;;;;;;2245295;61;20434;-62
2021/11/25 01:52:07;0.00;0.00;0.62;0.00;0.00;0.62;1.60;0.97;;;23.00;29.90;;;;;;2245568;61;20397;-62
2021/11/25 01:54:53;0.00;0.00;0.62;0.00;0.00;0.62;1.63;0.97;;;23.00;29.80;;;;;;2244949;61;20366;-63
2021/11/25 01:57:38;0.00;0.00;0.62;0.00;0.00;0.62;2.87;1.83;;;23.00;29.80;;;;;;2244308;61;20362;-63
2021/11/25 02:00:30;0.00;0.00;0.62;0.00;0.00;0.62;1.70;1.20;;;23.10;29.70;;;;;;2245424;61;20421;-63
2021/11/25 02:03:16;0.00;0.00;0.62;0.00;0.00;0.62;2.27;1.50;;;23.00;29.60;;;;;;2244787;61;20361;-61
2021/11/25 02:06:02;0.00;0.00;0.62;0.00;0.00;0.62;2.20;1.50;;;23.00;29.50;;;;;;2245882;61;20357;-61
2021/11/25 02:08:47;0.00;0.00;0.62;0.00;0.00;0.62;1.97;1.50;;;23.00;29.40;;;;;;2245105;61;20381;-62
2021/11/25 02:11:33;0.00;0.00;0.62;0.00;0.00;0.62;2.77;1.80;;;23.00;29.30;;;;;;2245435;61;20636;-63
2021/11/25 02:14:19;0.00;0.00;0.62;0.00;0.00;0.62;2.10;1.83;;;23.00;29.20;;;;;;2245397;61;20365;-63
2021/11/25 02:17:04;0.00;0.00;0.62;0.00;0.00;0.62;2.70;2.20;;;23.00;28.90;;;;;;2244973;61;20361;-64
2021/11/25 02:19:50;0.00;0.00;0.62;0.00;0.00;0.62;3.03;2.17;;;22.90;28.70;;;;;;2245433;61;20417;-63
2021/11/25 02:22:37;0.00;0.00;0.62;0.00;0.00;0.62;2.93;2.20;;;22.90;28.60;;;;;;2245283;61;20825;-60
2021/11/25 02:25:22;0.00;0.00;0.62;0.00;0.00;0.62;2.90;2.03;;;22.90;28.70;;;;;;2245050;61;20482;-60
2021/11/25 02:28:07;0.00;0.00;0.62;0.00;0.00;0.62;2.90;2.43;;;22.90;28.60;;;;;;2245811;61;20374;-63
2021/11/25 02:30:53;0.00;0.00;0.62;0.00;0.00;0.62;3.00;2.30;;;22.80;28.50;;;;;;2245126;61;20405;-60
2021/11/25 02:33:40;0.00;0.00;0.62;0.00;0.00;0.62;2.60;2.00;;;22.80;28.50;;;;;;2245526;61;20370;-63
2021/11/25 02:36:24;0.00;0.00;0.62;0.00;0.00;0.62;1.93;1.73;;;22.80;28.40;;;;;;2245577;61;20617;-63
2021/11/25 02:39:11;0.00;0.00;0.62;0.00;0.00;0.62;2.60;2.10;;;22.70;28.90;;;;;;2245079;61;20600;-62
2021/11/25 02:41:56;0.00;0.00;0.62;0.00;0.00;0.62;4.73;2.73;;;22.70;28.30;;;;;;2245295;61;20385;-59
2021/11/25 02:44:40;0.00;0.00;0.62;0.00;0.00;0.62;3.50;2.53;;;22.70;28.30;;;;;;2245409;61;20358;-63
2021/11/25 02:47:27;0.00;0.00;0.62;0.00;0.00;0.62;3.00;2.50;;;22.70;28.20;;;;;;2244849;61;20378;-63
2021/11/25 02:50:15;0.00;0.00;0.62;0.00;0.00;0.62;2.90;2.60;;;22.60;28.10;;;;;;2245501;61;20398;-63
2021/11/25 02:53:00;0.00;0.00;0.62;0.00;0.00;0.62;3.90;2.43;;;22.60;28.00;;;;;;2245256;61;20815;-63
2021/11/25 02:55:46;0.00;0.00;0.62;0.00;0.00;0.62;3.30;2.87;;;22.60;28.00;;;;;;2245321;61;20377;-63
2021/11/25 02:58:32;0.00;0.00;0.62;0.00;0.00;0.62;3.20;2.30;;;22.50;28.00;;;;;;2245240;61;20369;-63
2021/11/25 03:01:20;0.00;0.00;0.62;0.00;0.00;0.62;3.20;2.50;;;22.50;27.90;;;;;;2245001;61;20385;-63
2021/11/25 03:04:07;0.00;0.00;0.62;0.00;0.00;0.62;2.93;2.60;;;22.50;28.00;;;;;;2245337;61;20401;-63
2021/11/25 03:06:52;0.00;0.00;0.62;0.00;0.00;0.62;3.70;2.67;;;22.50;27.90;;;;;;2245410;61;20606;-62
2021/11/25 03:09:36;0.00;0.00;0.62;0.00;0.00;0.62;3.03;2.40;;;22.40;27.90;;;;;;2244711;61;20630;-62
2021/11/25 03:12:22;0.00;0.00;0.62;0.00;0.00;0.62;2.93;2.30;;;22.40;27.80;;;;;;2245202;61;20393;-63
2021/11/25 03:15:08;0.00;0.00;0.62;0.00;0.00;0.62;3.47;2.70;;;22.40;27.90;;;;;;2245346;61;20483;-63
2021/11/25 03:17:53;0.00;0.00;0.62;0.00;0.00;0.62;2.23;1.93;;;22.40;27.90;;;;;;2244667;61;20397;-62
2021/11/25 03:20:41;0.00;0.00;0.62;0.00;0.00;0.62;2.87;2.30;;;22.30;27.70;;;;;;2245219;61;20377;-63
2021/11/25 03:23:29;0.00;0.00;0.62;0.00;0.00;0.62;2.77;2.50;;;22.30;27.70;;;;;;2245013;61;20386;-62
2021/11/25 03:26:17;0.00;0.00;0.62;0.00;0.00;0.62;2.60;2.40;;;22.30;27.80;;;;;;2245699;61;20354;-63
2021/11/25 03:29:04;0.00;0.00;0.62;0.00;0.00;0.62;2.90;2.60;;;22.30;27.80;;;;;;2246051;61;20615;-62
2021/11/25 03:31:49;0.00;0.00;0.62;0.00;0.00;0.62;4.83;2.93;;;22.30;27.70;;;;;;2245379;61;20482;-63
2021/11/25 03:34:34;0.00;0.00;0.62;0.00;0.00;0.62;4.10;3.10;;;22.20;27.60;;;;;;2246368;61;20482;-63
2021/11/25 03:37:18;0.00;0.00;0.62;0.00;0.00;0.62;3.20;2.70;;;22.20;27.60;;;;;;2245992;61;20354;-62
2021/11/25 03:40:07;0.00;0.00;0.62;0.00;0.00;0.62;3.10;2.43;;;22.20;27.60;;;;;;2245814;61;20384;-63
2021/11/25 03:42:52;0.00;0.00;0.62;0.00;0.00;0.62;2.60;2.30;;;22.10;27.50;;;;;;2245954;61;20744;-63
2021/11/25 03:45:38;0.00;0.00;0.62;0.00;0.00;0.62;3.90;2.60;;;22.10;27.60;;;;;;2245654;61;20471;-63
2021/11/25 03:48:28;0.00;0.00;0.62;0.00;0.00;0.62;3.30;2.70;;;22.10;27.60;;;;;;2245801;61;20366;-63
2021/11/25 03:51:12;0.00;0.00;0.62;0.00;0.00;0.62;3.10;2.20;;;22.00;27.50;;;;;;2246109;61;20378;-63
2021/11/25 03:53:57;0.00;0.00;0.62;0.00;0.00;0.62;2.90;2.60;;;22.00;27.60;;;;;;2245682;61;20429;-62
2021/11/25 03:56:42;0.00;0.00;0.62;0.00;0.00;0.62;3.53;2.50;;;22.00;27.60;;;;;;2245689;61;20685;-61
2021/11/25 03:59:27;0.00;0.00;0.62;0.00;0.00;0.62;3.50;2.77;;;22.00;27.60;;;;;;2245820;61;20710;-63
2021/11/25 04:02:13;0.00;0.00;0.62;0.00;0.00;0.62;3.50;2.90;;;22.00;27.50;;;;;;2245474;61;20514;-62
2021/11/25 04:04:58;0.00;0.00;0.62;0.00;0.00;0.62;3.53;2.83;;;22.00;27.50;;;;;;2245818;61;20377;-61
2021/11/25 04:07:44;0.00;0.00;0.62;0.00;0.00;0.62;3.37;2.60;;;22.00;27.40;;;;;;2245499;61;20435;-62
2021/11/25 04:10:31;0.00;0.00;0.62;0.00;0.00;0.62;3.10;2.50;;;21.90;27.20;;;;;;2245687;61;20668;-62
2021/11/25 04:13:16;0.00;0.00;0.62;0.00;0.00;0.62;3.27;2.93;;;21.90;27.10;;;;;;2245779;61;20441;-64
2021/11/25 04:16:01;0.00;0.00;0.62;0.00;0.00;0.62;2.73;2.20;;;21.80;27.00;;;;;;2245004;61;20621;-62
2021/11/25 04:18:47;0.00;0.00;0.62;0.00;0.00;0.62;2.90;2.60;;;21.80;27.10;;;;;;2245980;61;20405;-61
2021/11/25 04:21:32;0.00;0.00;0.62;0.00;0.00;0.62;3.47;2.70;;;21.80;27.10;;;;;;2245704;61;20536;-60
2021/11/25 04:24:17;0.00;0.00;0.62;0.00;0.00;0.62;2.77;2.20;;;21.70;27.10;;;;;;2245439;61;20479;-63
2021/11/25 04:27:02;0.00;0.00;0.62;0.00;0.00;0.62;3.00;2.60;;;21.70;27.10;;;;;;2246077;61;20405;-63
2021/11/25 04:30:11;0.00;0.00;0.62;0.00;0.00;0.62;3.40;2.50;;;21.70;27.10;;;;;;2245305;61;20386;-63
2021/11/25 04:36:01;0.00;0.00;0.62;0.00;0.00;0.62;3.70;2.50;;;21.60;27.10;;;;;;2245811;61;20405;-63
2021/11/25 04:38:45;0.00;0.00;0.62;0.00;0.00;0.62;2.70;2.30;;;21.60;27.70;;;;;;2244854;61;20365;-64
2021/11/25 04:41:30;0.00;0.00;0.62;0.00;0.00;0.62;3.43;2.50;;;21.60;27.10;;;;;;2245890;61;20785;-64
2021/11/25 04:44:15;0.00;0.00;0.62;0.00;0.00;0.62;3.20;2.27;;;21.50;27.00;;;;;;2245494;61;20398;-62
2021/11/25 04:47:01;0.00;0.00;0.62;0.00;0.00;0.62;2.83;2.33;;;21.50;27.00;;;;;;2245633;61;20386;-64
2021/11/25 04:49:45;0.00;0.00;0.62;0.00;0.00;0.62;3.20;2.70;;;21.40;26.90;;;;;;2245848;61;20361;-62
2021/11/25 04:52:31;0.00;0.00;0.62;0.00;0.00;0.62;2.60;2.40;;;21.40;26.90;;;;;;2245299;61;20404;-64
2021/11/25 04:55:17;0.00;0.00;0.62;0.00;0.00;0.62;2.80;2.50;;;21.40;26.90;;;;;;2245721;61;20361;-62
2021/11/25 04:58:02;0.00;0.00;0.62;0.00;0.00;0.62;2.57;1.80;;;21.40;26.90;;;;;;2245747;61;20362;-63
2021/11/25 05:00:47;0.00;0.00;0.62;0.00;0.00;0.62;2.93;2.23;;;21.40;27.00;;;;;;2244880;61;20417;-63
2021/11/25 05:03:32;0.00;0.00;0.62;0.00;0.00;0.62;2.33;2.07;;;21.30;26.90;;;;;;2245905;61;20581;-63
2021/11/25 05:06:17;0.00;0.00;0.62;0.00;0.00;0.62;2.60;2.13;;;21.30;26.90;;;;;;2245401;61;20945;-63
2021/11/25 05:09:03;0.00;0.00;0.62;0.00;0.00;0.62;3.13;2.83;;;21.30;26.90;;;;;;2245438;61;20342;-63
2021/11/25 05:11:48;0.00;0.00;0.62;0.00;0.00;0.62;3.00;2.60;;;21.20;26.80;;;;;;2245709;61;20741;-62
2021/11/25 05:14:32;0.00;0.00;0.62;0.00;0.00;0.62;2.43;2.23;;;21.20;26.80;;;;;;2245262;61;20373;-63
2021/11/25 05:17:17;0.00;0.00;0.62;0.00;0.00;0.62;4.90;2.60;;;21.30;26.90;;;;;;2245474;61;20434;-63
2021/11/25 05:20:05;0.00;0.00;0.62;0.00;0.00;0.62;3.20;2.23;;;21.20;26.80;;;;;;2245476;61;20384;-63
2021/11/25 05:22:50;0.00;0.00;0.62;0.00;0.00;0.62;3.40;2.67;;;21.20;26.90;;;;;;2244513;61;20389;-62
2021/11/25 05:25:37;0.00;0.00;0.62;0.00;0.00;0.62;2.73;2.23;;;21.20;26.90;;;;;;2245925;61;20838;-62
2021/11/25 05:28:22;0.00;0.00;0.62;0.00;0.00;0.62;2.70;2.30;;;21.10;26.90;;;;;;2245270;61;20393;-63
2021/11/25 05:31:06;0.00;0.00;0.62;0.00;0.00;0.62;2.53;2.33;;;21.10;26.90;;;;;;2245431;61;20761;-63
2021/11/25 05:33:51;0.00;0.00;0.62;0.00;0.00;0.62;2.77;2.10;;;21.10;26.90;;;;;;2245741;61;20381;-63
2021/11/25 05:36:36;0.00;0.00;0.62;0.00;0.00;0.62;3.20;2.43;;;21.10;27.00;;;;;;2244965;61;20398;-62
2021/11/25 05:39:21;0.00;0.00;0.62;0.00;0.00;0.62;2.40;2.10;;;21.10;27.00;;;;;;2245419;61;20778;-63
2021/11/25 05:42:07;0.00;0.00;0.62;0.00;0.00;0.62;2.33;1.87;;;21.10;27.00;;;;;;2245580;61;20798;-62
2021/11/25 05:44:52;0.00;0.00;0.62;0.00;0.00;0.62;2.50;2.10;;;21.10;27.00;;;;;;2245171;61;20400;-62
2021/11/25 05:47:39;0.00;0.00;0.62;0.00;0.00;0.62;3.60;2.60;;;21.10;27.00;;;;;;2245844;61;20362;-62
2021/11/25 05:50:26;0.00;0.00;0.62;0.00;0.00;0.62;2.70;2.43;;;21.10;27.00;;;;;;2245458;61;20600;-62
2021/11/25 05:53:17;0.00;0.00;0.62;0.00;0.00;0.62;3.00;2.70;;;21.10;27.00;;;;;;2245180;61;20778;-64
2021/11/25 05:56:03;0.00;0.00;0.62;0.00;0.00;0.62;3.60;2.60;;;21.00;26.90;;;;;;2245558;61;20459;-65
2021/11/25 05:58:49;0.00;0.00;0.62;0.00;0.00;0.62;2.40;1.97;;;21.10;27.00;;;;;;2244530;61;20396;-62
2021/11/25 06:01:34;0.00;0.00;0.62;0.00;0.00;0.62;3.40;3.10;;;21.00;26.80;;;;;;2245331;61;20389;-62
2021/11/25 06:04:19;0.00;0.00;0.62;0.00;0.00;0.62;3.43;2.43;;;21.00;26.80;;;;;;2245104;61;20366;-61
2021/11/25 06:07:04;0.00;0.00;0.62;0.00;0.00;0.62;2.80;2.10;;;21.00;26.80;;;;;;2245066;61;20751;-62
2021/11/25 06:09:49;0.00;0.00;0.62;0.00;0.00;0.62;2.43;2.23;;;20.90;26.70;;;;;;2245625;61;20397;-63
2021/11/25 06:12:34;0.00;0.00;0.62;0.00;0.00;0.62;3.27;2.80;;;20.90;26.80;;;;;;2245509;61;20357;-63
2021/11/25 06:15:20;0.00;0.00;0.62;0.00;0.00;0.62;2.90;2.17;;;20.90;26.80;;;;;;2245268;61;20733;-63
2021/11/25 06:18:05;0.00;0.00;0.62;0.00;0.00;0.62;3.07;2.57;;;20.90;26.80;;;;;;2245506;61;20459;-62
2021/11/25 06:20:50;0.00;0.00;0.62;0.00;0.00;0.62;2.87;2.50;;;20.90;26.80;;;;;;2241840;61;20425;-62
2021/11/25 06:23:35;0.00;0.00;0.62;0.00;0.00;0.62;2.50;2.20;;;20.90;26.80;;;;;;2245321;61;20479;-63
2021/11/25 06:26:20;0.00;0.00;0.62;0.00;0.00;0.62;2.60;2.20;;;20.90;26.90;;;;;;2245551;61;20384;-63
2021/11/25 06:29:05;0.00;0.00;0.62;0.00;0.00;0.62;2.57;2.20;;;20.90;26.90;;;;;;2244992;61;20361;-63
2021/11/25 06:31:51;0.00;0.00;0.62;0.00;0.00;0.62;2.30;2.00;;;20.80;26.80;;;;;;2245741;61;20385;-64
2021/11/25 06:34:37;0.00;0.00;0.62;0.00;0.00;0.62;2.30;1.87;;;20.80;26.90;;;;;;2245445;61;20730;-61
2021/11/25 06:37:22;0.00;0.00;0.62;0.00;0.00;0.62;3.00;2.67;;;20.80;26.90;;;;;;2245801;61;20401;-62
2021/11/25 06:40:10;0.00;0.00;0.62;0.00;0.00;0.62;2.10;1.90;;;20.80;26.90;;;;;;2245637;61;20381;-62
2021/11/25 06:42:55;0.00;0.00;0.62;0.00;0.00;0.62;3.17;2.87;;;20.80;26.90;;;;;;2244604;61;20397;-64
2021/11/25 06:45:42;0.00;0.00;0.62;0.00;0.00;0.62;3.27;2.37;;;20.80;26.90;;;;;;2245324;61;20478;-64
2021/11/25 06:48:29;0.00;0.00;0.62;0.00;0.00;0.62;3.80;2.83;;;20.80;26.90;;;;;;2245301;61;20742;-63
2021/11/25 06:51:13;0.00;0.00;0.62;0.00;0.00;0.62;2.63;2.30;;;20.80;26.90;;;;;;2245010;61;20402;-65
2021/11/25 06:53:59;0.00;0.00;0.62;0.00;0.00;0.62;3.20;2.60;;;20.80;26.90;;;;;;2245164;61;20350;-68
2021/11/25 06:56:43;0.00;0.00;0.62;0.00;0.00;0.62;3.40;2.80;;;20.70;26.90;;;;;;2245382;61;20715;-68
2021/11/25 06:59:29;0.00;0.00;0.62;0.00;0.00;0.62;3.93;3.30;;;20.80;26.90;;;;;;2244585;61;20361;-68
2021/11/25 07:02:14;0.00;0.00;0.62;0.00;0.00;0.62;3.13;2.73;;;20.80;26.90;;;;;;2246064;61;20746;-67
2021/11/25 07:05:02;0.00;0.00;0.62;0.00;0.00;0.62;3.97;2.90;;;20.80;26.90;;;;;;2245346;61;20369;-66
2021/11/25 07:07:47;0.00;0.00;0.62;0.00;0.00;0.62;3.67;3.13;;;20.70;26.90;;;;;;2245407;61;20576;-67
2021/11/25 07:10:32;0.00;0.00;0.62;0.00;0.00;0.62;3.97;3.57;;;20.70;26.90;;;;;;2245949;61;20377;-65
2021/11/25 07:13:17;0.00;0.00;0.62;0.00;0.00;0.62;3.40;2.90;;;20.70;26.90;;;;;;2245809;61;20385;-68
2021/11/25 07:16:03;0.00;0.00;0.62;0.00;0.00;0.62;3.60;3.13;;;20.70;26.90;;;;;;2245876;61;20366;-67
2021/11/25 07:18:49;0.00;0.00;0.62;0.00;0.00;0.62;4.10;3.70;;;20.70;26.80;;;;;;2245861;61;20690;-65
2021/11/25 07:21:35;0.00;0.00;0.62;0.00;0.00;0.62;4.00;3.60;;;20.70;26.80;;;;;;2244854;61;20392;-66
2021/11/25 07:24:20;0.00;0.00;0.62;0.00;0.00;0.62;4.67;4.10;;;20.70;26.60;;;;;;2245852;61;20583;-65
2021/11/25 07:27:05;0.00;0.00;0.62;0.00;0.00;0.62;4.47;4.07;;;20.70;26.60;;;;;;2245637;61;20610;-69
2021/11/25 07:29:51;0.00;0.00;0.62;0.00;0.00;0.62;8.40;4.07;;;20.70;26.40;;;;;;2245780;61;20378;-68
2021/11/25 07:32:37;0.00;0.00;0.62;0.00;0.00;0.62;3.73;3.30;;;20.60;26.40;;;;;;2246197;61;20354;-66
2021/11/25 07:35:23;0.00;0.00;0.62;0.00;0.00;0.62;4.27;3.80;;;20.60;26.40;;;;;;2245686;61;20361;-64
2021/11/25 07:38:10;0.00;0.00;0.62;0.00;0.00;0.62;5.13;4.53;;;20.60;26.50;;;;;;2245963;61;20354;-66
2021/11/25 07:40:59;0.00;0.00;0.62;0.00;0.00;0.62;4.40;3.90;;;20.50;26.40;;;;;;2247442;56;20753;31
2021/11/25 07:43:45;0.00;0.00;0.62;0.00;0.00;0.62;4.80;3.73;;;20.50;26.50;;;;;;2299091;46;20416;-65
2021/11/25 07:46:30;0.00;0.00;0.62;0.00;0.00;0.62;3.83;3.43;;;20.50;26.50;;;;;;2483474;53;20380;-64
2021/11/25 07:49:15;0.00;0.00;0.62;0.00;0.00;0.62;3.90;3.30;;;20.50;26.60;;;;;;2249334;61;20360;-66
2021/11/25 07:52:00;0.00;0.00;0.62;0.00;0.00;0.62;4.90;3.20;;;20.50;26.60;;;;;;2246368;61;20453;-65
2021/11/25 07:54:47;0.00;0.00;0.62;0.00;0.00;0.62;4.57;4.13;;;20.50;26.60;;;;;;2246250;61;20370;-65
2021/11/25 07:57:32;0.00;0.00;0.62;0.00;0.00;0.62;4.60;3.10;;;20.50;26.70;;;;;;2247746;61;20365;-66
2021/11/25 08:00:21;0.00;0.00;0.62;0.00;0.00;0.62;4.67;4.20;;;20.50;26.60;;;;;;2246142;61;20505;-65
2021/11/25 08:03:06;0.00;0.00;0.62;0.00;0.00;0.62;4.70;4.30;;;20.50;26.60;;;;;;2246048;61;20430;-66
2021/11/25 08:05:53;0.00;0.00;0.62;0.00;0.00;0.62;5.90;4.00;;;20.50;26.60;;;;;;2245476;61;20370;-65
2021/11/25 08:08:38;0.00;0.00;0.62;0.00;0.00;0.62;4.23;3.83;;;20.50;26.60;;;;;;2245847;61;20366;-68
2021/11/25 08:11:24;0.00;0.00;0.62;0.00;0.00;0.62;6.13;3.73;;;20.50;26.60;;;;;;2244694;61;20422;-68
2021/11/25 08:14:10;0.00;0.00;0.62;0.00;0.00;0.62;4.53;3.40;;;20.50;26.70;;;;;;2247945;58;20369;-69
2021/11/25 08:16:58;0.00;0.00;0.62;0.00;0.00;0.62;4.00;3.57;;;20.50;26.80;;;;;;2245637;61;20430;-66
2021/11/25 08:19:43;0.00;0.00;0.62;0.00;0.00;0.62;5.30;3.00;;;20.50;26.90;;;;;;2245229;61;20385;-68
2021/11/25 08:22:28;0.00;0.00;0.62;0.00;0.00;0.62;4.67;3.07;;;20.50;26.90;;;;;;2246121;61;20466;-67
2021/11/25 08:25:12;0.00;0.00;0.62;0.00;0.00;0.62;4.03;2.87;;;20.50;26.90;;;;;;2245864;61;20461;-67
2021/11/25 08:28:01;0.00;0.00;0.62;0.00;0.00;0.62;3.83;2.93;;;20.60;27.00;;;;;;2245340;61;20733;-65
2021/11/25 08:30:46;0.00;0.00;0.62;0.00;0.00;0.62;3.37;3.07;;;20.60;27.00;;;;;;2246082;61;20401;-68
2021/11/25 08:33:31;0.00;0.00;0.62;0.00;0.00;0.62;5.20;2.80;;;20.60;27.00;;;;;;2245277;61;20362;-65
2021/11/25 08:36:16;0.00;0.00;0.62;0.00;0.00;0.62;6.73;2.77;;;20.60;27.00;;;;;;2246193;61;20437;-66
2021/11/25 08:39:02;0.00;0.00;0.62;0.00;0.00;0.62;2.60;2.37;;;20.60;27.00;;;;;;2245846;61;20361;-65
2021/11/25 08:41:48;0.00;0.00;0.62;0.00;0.00;0.62;2.77;2.30;;;20.60;27.00;;;;;;2244843;61;20820;-67
2021/11/25 08:44:34;0.00;0.00;0.62;0.00;0.00;0.62;2.50;2.13;;;20.60;27.00;;;;;;2246201;61;20370;-67
2021/11/25 08:47:19;0.00;0.00;0.62;0.00;0.00;0.62;3.10;2.27;;;20.70;27.10;;;;;;2245964;61;20362;-69
2021/11/25 08:50:07;0.00;0.00;0.62;0.00;0.00;0.62;2.50;2.20;;;20.70;27.10;;;;;;2245192;61;20425;-68
2021/11/25 08:52:52;0.00;0.00;0.62;0.00;0.00;0.62;2.20;1.50;;;20.70;27.10;;;;;;2246175;61;20385;-66
2021/11/25 08:55:37;0.00;0.00;0.62;0.00;0.00;0.62;3.73;2.07;;;20.70;27.10;;;;;;2244709;61;20442;-68
2021/11/25 08:58:22;0.00;0.00;0.62;0.00;0.00;0.62;5.50;2.50;;;20.70;27.10;;;;;;2245998;61;20362;-65
2021/11/25 09:01:09;0.00;0.00;0.62;0.00;0.00;0.62;2.43;1.97;;;20.80;27.70;;;;;;2245735;61;20393;-66
2021/11/25 09:03:53;0.00;0.00;0.62;0.00;0.00;0.62;2.57;2.07;;;20.80;27.20;;;;;;2245196;61;20350;-66
2021/11/25 09:06:38;0.00;0.00;0.62;0.00;0.00;0.62;2.83;1.83;;;20.80;27.20;;;;;;2245868;61;20382;-68
2021/11/25 09:09:23;0.00;0.00;0.62;0.00;0.00;0.62;3.23;1.83;;;20.90;27.20;;;;;;2245700;61;20357;-69
2021/11/25 09:12:08;0.00;0.00;0.62;0.00;0.00;0.62;2.57;1.97;;;20.90;27.20;;;;;;2245096;61;20464;-68
2021/11/25 09:14:53;0.00;0.00;0.62;0.00;0.00;0.62;2.40;1.80;;;20.90;27.30;;;;;;2245912;61;20361;-67
2021/11/25 09:17:39;0.00;0.00;0.62;0.00;0.00;0.62;2.33;1.70;;;21.00;27.30;;;;;;2245371;61;20358;-67
2021/11/25 09:20:30;0.00;0.00;0.62;0.00;0.00;0.62;3.00;1.90;;;21.00;27.30;;;;;;2245546;61;20514;-67
2021/11/25 09:23:19;0.00;0.00;0.62;0.00;0.00;0.62;2.50;2.03;;;21.00;27.30;;;;;;2245539;61;20498;-66
2021/11/25 09:26:04;0.00;0.00;0.62;0.00;0.00;0.62;2.50;1.93;;;21.00;27.80;;;;;;2245101;61;20383;-67
2021/11/25 09:28:49;0.00;0.00;0.62;0.00;0.00;0.62;2.60;1.90;;;21.10;27.40;;;;;;2245726;61;20369;-67
2021/11/25 09:31:35;0.00;0.00;0.62;0.00;0.00;0.62;2.80;1.80;;;21.10;27.40;;;;;;2245756;61;20598;-68
2021/11/25 09:34:21;0.00;0.00;0.62;0.00;0.00;0.62;3.17;2.00;;;21.20;27.40;;;;;;2245206;61;20357;-66
2021/11/25 09:37:07;0.00;0.00;0.62;0.00;0.00;0.62;2.67;1.77;;;21.20;27.40;;;;;;2245761;61;20589;-66
2021/11/25 09:39:52;0.00;0.00;0.62;0.00;0.00;0.62;2.40;1.93;;;21.20;27.40;;;;;;2245319;61;20401;-66
2021/11/25 09:42:37;0.00;0.00;0.62;0.00;0.00;0.62;2.20;1.80;;;21.30;27.50;;;;;;2245396;61;20429;-67
2021/11/25 09:45:23;0.00;0.00;0.62;0.00;0.00;0.62;2.30;1.80;;;21.20;27.40;;;;;;2245885;61;20644;-67
2021/11/25 09:48:11;0.00;0.00;0.62;0.00;0.00;0.62;1.80;1.40;;;21.30;27.50;;;;;;2245018;61;20358;-67
2021/11/25 09:50:58;0.00;0.00;0.62;0.00;0.00;0.62;2.00;1.70;;;21.30;27.50;;;;;;2245846;61;20386;-68
2021/11/25 09:53:43;0.00;0.00;0.62;0.00;0.00;0.62;2.13;1.60;;;21.30;27.50;;;;;;2245968;61;20409;-67
2021/11/25 09:56:28;0.00;0.00;0.62;0.00;0.00;0.62;3.23;2.00;;;21.30;27.50;;;;;;2247237;61;20717;-67
2021/11/25 09:59:13;0.00;0.00;0.62;0.00;0.00;0.62;2.27;1.70;;;21.30;27.50;;;;;;2245839;61;20610;-67
2021/11/25 10:01:59;0.00;0.00;0.62;0.00;0.00;0.62;4.23;1.53;;;21.40;27.50;;;;;;2245491;61;20653;-67
2021/11/25 10:04:44;0.00;0.00;0.62;0.00;0.00;0.62;1.90;1.40;;;21.40;27.50;;;;;;2245635;61;20630;-67
2021/11/25 10:07:33;0.00;0.00;0.62;0.00;0.00;0.62;2.10;1.47;;;21.40;27.40;;;;;;2245817;61;20566;-66
2021/11/25 10:10:27;0.00;0.00;0.62;0.00;0.00;0.62;1.73;1.30;;;21.40;27.40;;;;;;2244765;61;20382;-67
2021/11/25 10:13:15;0.00;0.00;0.62;0.00;0.00;0.62;2.00;1.50;;;21.40;27.50;;;;;;2245844;61;20586;-67
2021/11/25 10:15:59;0.00;0.00;0.62;0.00;0.00;0.62;2.10;1.73;;;21.40;27.50;;;;;;2245763;61;20360;-67
2021/11/25 10:18:45;0.00;0.00;0.62;0.00;0.00;0.62;1.87;1.40;;;21.40;27.40;;;;;;2244628;61;20397;-67
2021/11/25 10:21:30;0.00;0.00;0.62;0.00;0.00;0.62;2.30;1.77;;;21.40;27.50;;;;;;2246050;61;20466;-66
2021/11/25 10:24:30;0.00;0.00;0.62;0.00;0.00;0.62;2.30;1.63;;;21.40;27.40;;;;;;2245439;61;20717;-66
2021/11/25 10:27:19;0.00;0.00;0.62;0.00;0.00;0.62;2.13;1.47;;;21.40;27.40;;;;;;2245840;61;20712;-65
2021/11/25 10:30:15;0.00;0.00;0.62;0.00;0.00;0.62;1.87;1.30;;;21.40;27.40;;;;;;2245391;61;20377;-67
2021/11/25 10:33:01;0.00;0.00;0.62;0.00;0.00;0.62;3.87;1.60;;;21.40;27.40;;;;;;2244865;61;20427;-67
2021/11/25 10:36:05;0.00;0.00;0.62;0.00;0.00;0.62;1.80;1.20;;;21.50;27.50;;;;;;2245781;61;20425;-66
2021/11/25 10:39:03;0.00;0.00;0.62;0.00;0.00;0.62;1.63;1.20;;;21.50;27.50;;;;;;2245626;61;20867;-66
2021/11/25 10:41:51;0.00;0.00;0.62;0.00;0.00;0.62;2.30;1.43;;;21.50;27.50;;;;;;2248766;61;20424;-67
2021/11/25 10:44:39;0.00;0.00;0.62;0.00;0.00;0.62;1.70;1.20;;;21.50;27.50;;;;;;2245552;61;20350;-66
2021/11/25 10:47:26;0.00;0.00;0.62;0.00;0.00;0.62;1.60;1.20;;;21.50;27.50;;;;;;2244725;61;20421;-67
2021/11/25 10:50:15;0.00;0.00;0.62;0.00;0.00;0.62;2.03;1.30;;;21.50;27.50;;;;;;2245465;61;20585;-67
2021/11/25 10:53:03;0.00;0.00;0.62;0.00;0.00;0.62;1.70;1.23;;;21.50;27.50;;;;;;2245551;61;20374;-67
2021/11/25 10:55:48;0.00;0.00;0.62;0.00;0.00;0.62;1.83;1.50;;;21.50;27.50;;;;;;2244939;61;20614;-66
2021/11/25 10:58:51;0.00;0.00;0.62;0.00;0.00;0.62;1.50;1.20;;;21.50;27.50;;;;;;2247928;61;20382;-69